createdAt,value
2024-01-29T00:00:00.063Z,5.21
2024-01-29T00:02:30.278Z,5.18
2024-01-29T00:04:58.090Z,5.16
2024-01-29T00:07:25.722Z,5.15
2024-01-29T00:09:53.365Z,5.13
2024-01-29T00:12:21.102Z,5.11
2024-01-29T00:14:48.778Z,5.10
2024-01-29T00:17:16.346Z,5.06
2024-01-29T00:19:44.025Z,5.04
2024-01-29T00:22:11.677Z,5.01
2024-01-29T00:24:39.461Z,4.99
2024-01-29T00:27:07.015Z,4.97
2024-01-29T00:29:34.887Z,4.93
2024-01-29T00:32:02.488Z,4.92
2024-01-29T00:34:30.145Z,4.90
2024-01-29T00:36:57.922Z,4.87
2024-01-29T00:39:25.570Z,4.85
2024-01-29T00:41:53.177Z,4.84
2024-01-29T00:44:21.107Z,4.81
2024-01-29T00:46:48.682Z,4.80
2024-01-29T00:49:16.317Z,4.79
2024-01-29T00:51:44.282Z,4.79
2024-01-29T00:54:11.962Z,4.75
2024-01-29T00:56:39.665Z,4.72
2024-01-29T00:59:07.206Z,4.70
2024-01-29T01:01:34.958Z,4.71
2024-01-29T01:04:02.748Z,4.69
2024-01-29T01:06:30.348Z,4.68
2024-01-29T01:08:57.968Z,4.68
2024-01-29T01:11:25.602Z,4.66
2024-01-29T01:13:54.625Z,4.64
2024-01-29T01:16:22.350Z,4.65
2024-01-29T01:18:50.228Z,4.66
2024-01-29T01:21:18.399Z,4.60
2024-01-29T01:23:45.955Z,4.61
2024-01-29T01:26:14.126Z,4.59
2024-01-29T01:28:41.717Z,4.61
2024-01-29T01:31:09.394Z,4.59
2024-01-29T01:33:36.991Z,4.58
2024-01-29T01:36:05.097Z,4.59
2024-01-29T01:38:32.921Z,4.61
2024-01-29T01:41:00.508Z,4.62
2024-01-29T01:43:28.084Z,4.62
2024-01-29T01:46:05.134Z,4.63
2024-01-29T01:48:35.140Z,4.62
2024-01-29T01:51:05.294Z,4.62
2024-01-29T01:53:35.757Z,4.61
2024-01-29T01:56:05.142Z,4.60
2024-01-29T01:58:34.801Z,4.58
2024-01-29T02:01:02.708Z,4.58
2024-01-29T02:03:30.536Z,4.58
2024-01-29T02:05:58.263Z,4.56
2024-01-29T02:08:26.277Z,4.55
2024-01-29T02:10:57.365Z,4.55
2024-01-29T02:13:25.346Z,4.55
2024-01-29T02:15:53.251Z,4.56
2024-01-29T02:18:20.921Z,4.56
2024-01-29T02:20:48.600Z,4.57
2024-01-29T02:23:16.147Z,4.57
2024-01-29T02:25:43.716Z,4.56
2024-01-29T02:28:11.311Z,4.56
2024-01-29T02:30:39.286Z,4.56
2024-01-29T02:33:06.956Z,4.54
2024-01-29T02:35:34.680Z,4.55
2024-01-29T02:38:02.273Z,4.56
2024-01-29T02:40:29.887Z,4.52
2024-01-29T02:42:57.627Z,4.52
2024-01-29T02:45:25.208Z,4.52
2024-01-29T02:47:52.868Z,4.51
2024-01-29T02:50:21.134Z,4.51
2024-01-29T02:52:48.706Z,4.51
2024-01-29T02:55:16.325Z,4.51
2024-01-29T02:57:44.025Z,4.52
2024-01-29T03:00:12.003Z,4.54
2024-01-29T03:02:39.577Z,4.54
2024-01-29T03:05:08.424Z,4.56
2024-01-29T03:07:36.196Z,4.56
2024-01-29T03:10:04.186Z,4.58
2024-01-29T03:12:31.913Z,4.60
2024-01-29T03:15:01.604Z,4.60
2024-01-29T03:17:31.096Z,4.59
2024-01-29T03:19:58.947Z,4.58
2024-01-29T03:22:26.725Z,4.53
2024-01-29T03:24:54.459Z,4.51
2024-01-29T03:27:22.102Z,4.50
2024-01-29T03:29:49.770Z,4.48
2024-01-29T03:32:17.482Z,4.49
2024-01-29T03:34:45.631Z,4.47
2024-01-29T03:37:13.640Z,4.48
2024-01-29T03:39:41.328Z,4.44
2024-01-29T03:42:09.608Z,4.42
2024-01-29T03:44:37.184Z,4.41
2024-01-29T03:47:04.942Z,4.39
2024-01-29T03:49:32.612Z,4.37
2024-01-29T03:52:00.217Z,4.34
2024-01-29T03:54:27.928Z,4.31
2024-01-29T03:56:55.558Z,4.27
2024-01-29T03:59:23.232Z,4.25
2024-01-29T04:01:51.178Z,4.25
2024-01-29T04:04:18.913Z,4.21
2024-01-29T04:06:48.005Z,4.18
2024-01-29T04:09:22.055Z,4.15
2024-01-29T04:11:53.037Z,4.16
2024-01-29T04:14:23.818Z,4.17
2024-01-29T04:16:52.068Z,4.17
2024-01-29T04:19:19.782Z,4.14
2024-01-29T04:21:47.569Z,4.13
2024-01-29T04:24:16.916Z,4.14
2024-01-29T04:26:44.466Z,4.16
2024-01-29T04:29:12.285Z,4.16
2024-01-29T04:31:39.845Z,4.16
2024-01-29T04:34:07.693Z,4.15
2024-01-29T04:36:35.338Z,4.14
2024-01-29T04:39:04.211Z,4.16
2024-01-29T04:41:32.082Z,4.16
2024-01-29T04:43:59.693Z,4.17
2024-01-29T04:46:27.268Z,4.14
2024-01-29T04:48:54.973Z,4.14
2024-01-29T04:51:23.078Z,4.16
2024-01-29T04:53:50.699Z,4.18
2024-01-29T04:56:18.577Z,4.16
2024-01-29T04:58:47.131Z,4.16
2024-01-29T05:01:14.850Z,4.18
2024-01-29T05:03:42.665Z,4.18
2024-01-29T05:06:10.972Z,4.16
2024-01-29T05:08:38.550Z,4.17
2024-01-29T05:11:06.222Z,4.19
2024-01-29T05:13:34.301Z,4.21
2024-01-29T05:16:03.035Z,4.23
2024-01-29T05:18:31.375Z,4.26
2024-01-29T05:20:58.926Z,4.30
2024-01-29T05:23:26.482Z,4.34
2024-01-29T05:25:54.056Z,4.39
2024-01-29T05:28:22.669Z,4.42
2024-01-29T05:30:53.050Z,4.40
2024-01-29T05:33:25.668Z,4.40
2024-01-29T05:35:58.066Z,4.38
2024-01-29T05:38:26.285Z,4.39
2024-01-29T05:40:53.927Z,4.42
2024-01-29T05:43:21.682Z,4.43
2024-01-29T05:45:49.248Z,4.40
2024-01-29T05:48:17.070Z,4.37
2024-01-29T05:50:44.663Z,4.37
2024-01-29T05:53:12.271Z,4.37
2024-01-29T05:55:40.736Z,4.37
2024-01-29T05:58:08.503Z,4.36
2024-01-29T06:00:36.861Z,4.32
2024-01-29T06:03:04.859Z,4.29
2024-01-29T06:05:32.529Z,4.27
2024-01-29T06:08:00.265Z,4.26
2024-01-29T06:10:28.265Z,4.24
2024-01-29T06:12:55.868Z,4.22
2024-01-29T06:15:25.030Z,4.21
2024-01-29T06:17:52.735Z,4.21
2024-01-29T06:20:20.751Z,4.20
2024-01-29T06:22:48.534Z,4.23
2024-01-29T06:25:20.521Z,4.25
2024-01-29T06:27:48.260Z,4.25
2024-01-29T06:30:16.682Z,4.24
2024-01-29T06:32:44.485Z,4.24
2024-01-29T06:35:12.185Z,4.21
2024-01-29T06:37:40.226Z,4.20
2024-01-29T06:40:09.369Z,4.18
2024-01-29T06:42:37.514Z,4.20
2024-01-29T06:45:05.911Z,4.19
2024-01-29T06:47:33.716Z,4.20
2024-01-29T06:50:01.638Z,4.18
2024-01-29T06:52:29.408Z,4.19
2024-01-29T06:54:57.584Z,4.21
2024-01-29T06:57:25.222Z,4.22
2024-01-29T06:59:52.922Z,4.21
2024-01-29T07:02:20.520Z,4.21
2024-01-29T07:04:48.186Z,4.18
2024-01-29T07:07:16.287Z,4.19
2024-01-29T07:09:43.919Z,4.17
2024-01-29T07:12:11.522Z,4.17
2024-01-29T07:14:41.938Z,4.17
2024-01-29T07:17:09.913Z,4.16
2024-01-29T07:19:37.743Z,4.16
2024-01-29T07:22:06.585Z,4.16
2024-01-29T07:24:38.208Z,4.16
2024-01-29T07:27:06.012Z,4.16
2024-01-29T07:29:33.602Z,4.16
2024-01-29T07:32:01.173Z,4.15
2024-01-29T07:34:29.093Z,4.17
2024-01-29T07:36:56.792Z,4.19
2024-01-29T07:39:25.270Z,4.21
2024-01-29T07:41:52.874Z,4.24
2024-01-29T07:44:20.518Z,4.27
2024-01-29T07:46:55.029Z,4.33
2024-01-29T07:49:22.998Z,4.37
2024-01-29T07:51:50.658Z,4.42
2024-01-29T07:54:18.225Z,4.45
2024-01-29T07:56:45.812Z,4.48
2024-01-29T07:59:13.515Z,4.55
2024-01-29T08:01:41.281Z,4.59
2024-01-29T08:04:09.123Z,4.65
2024-01-29T08:06:36.850Z,4.70
2024-01-29T08:09:07.190Z,4.72
2024-01-29T08:11:34.765Z,4.77
2024-01-29T08:14:02.363Z,4.81
2024-01-29T08:16:30.071Z,4.86
2024-01-29T08:18:58.622Z,4.88
2024-01-29T08:21:26.402Z,4.92
2024-01-29T08:23:53.978Z,4.97
2024-01-29T08:26:21.703Z,4.99
2024-01-29T08:28:49.259Z,5.02
2024-01-29T08:31:16.846Z,5.08
2024-01-29T08:33:44.993Z,5.11
2024-01-29T08:36:12.676Z,5.15
2024-01-29T08:38:41.996Z,5.16
2024-01-29T08:41:10.191Z,5.18
2024-01-29T08:43:37.752Z,5.20
2024-01-29T08:46:05.480Z,5.23
2024-01-29T08:48:33.840Z,5.24
2024-01-29T08:51:01.482Z,5.26
2024-01-29T08:53:29.075Z,5.30
2024-01-29T08:55:56.876Z,5.31
2024-01-29T08:58:26.415Z,5.35
2024-01-29T09:00:55.935Z,5.38
2024-01-29T09:03:25.705Z,5.42
2024-01-29T09:05:53.745Z,5.45
2024-01-29T09:08:23.433Z,5.49
2024-01-29T09:10:51.041Z,5.53
2024-01-29T09:13:18.663Z,5.56
2024-01-29T09:15:46.466Z,5.59
2024-01-29T09:18:14.140Z,5.65
2024-01-29T09:20:41.887Z,5.67
2024-01-29T09:23:09.912Z,5.71
2024-01-29T09:25:37.467Z,5.73
2024-01-29T09:28:05.458Z,5.78
2024-01-29T09:30:33.602Z,5.79
2024-01-29T09:33:10.720Z,5.80
2024-01-29T09:35:45.636Z,5.83
2024-01-29T09:38:15.383Z,5.88
2024-01-29T09:40:47.430Z,5.91
2024-01-29T09:43:21.800Z,5.94
2024-01-29T09:45:53.583Z,5.99
2024-01-29T09:48:23.440Z,6.05
2024-01-29T09:50:51.936Z,6.07
2024-01-29T09:53:22.039Z,6.11
2024-01-29T09:55:49.979Z,6.16
2024-01-29T09:58:17.656Z,6.21
2024-01-29T10:00:45.339Z,6.24
2024-01-29T10:03:33.334Z,6.30
2024-01-29T10:06:00.982Z,6.35
2024-01-29T10:08:30.847Z,6.40
2024-01-29T10:10:58.911Z,6.45
2024-01-29T10:13:26.577Z,6.50
2024-01-29T10:15:54.244Z,6.56
2024-01-29T10:18:25.759Z,6.62
2024-01-29T10:21:05.855Z,6.68
2024-01-29T10:23:33.979Z,6.74
2024-01-29T10:26:02.242Z,6.78
2024-01-29T10:28:29.912Z,6.84
2024-01-29T10:30:59.694Z,6.89
2024-01-29T10:33:27.557Z,6.96
2024-01-29T10:35:59.082Z,7.01
2024-01-29T10:38:29.632Z,7.07
2024-01-29T10:40:59.546Z,7.14
2024-01-29T10:43:38.398Z,7.19
2024-01-29T10:46:08.742Z,7.25
2024-01-29T10:48:37.797Z,7.29
2024-01-29T10:51:06.921Z,7.35
2024-01-29T10:53:35.516Z,7.40
2024-01-29T10:56:04.707Z,7.45
2024-01-29T10:58:32.709Z,7.49
2024-01-29T11:01:01.501Z,7.54
2024-01-29T11:03:30.574Z,7.58
2024-01-29T11:06:20.569Z,7.62
2024-01-29T11:08:55.831Z,7.69
2024-01-29T11:11:24.666Z,7.75
2024-01-29T11:13:52.735Z,7.79
2024-01-29T11:16:23.579Z,7.86
2024-01-29T11:18:52.052Z,7.90
2024-01-29T11:21:25.152Z,7.98
2024-01-29T11:23:57.208Z,8.03
2024-01-29T11:26:29.495Z,8.10
2024-01-29T11:29:08.398Z,8.17
2024-01-29T11:31:42.028Z,8.27
2024-01-29T11:34:10.574Z,8.34
2024-01-29T11:36:39.972Z,8.42
2024-01-29T11:39:10.003Z,8.48
2024-01-29T11:41:38.944Z,8.54
2024-01-29T11:44:06.933Z,8.62
2024-01-29T11:46:34.544Z,8.67
2024-01-29T11:49:02.544Z,8.73
2024-01-29T11:51:30.611Z,8.78
2024-01-29T11:54:00.560Z,8.83
2024-01-29T11:56:28.502Z,8.92
2024-01-29T11:59:03.467Z,8.96
2024-01-29T12:01:34.790Z,9.02
2024-01-29T12:04:03.485Z,9.11
2024-01-29T12:06:33.442Z,9.17
2024-01-29T12:09:01.379Z,9.24
2024-01-29T12:11:29.137Z,9.31
2024-01-29T12:13:58.276Z,9.36
2024-01-29T12:16:26.987Z,9.44
2024-01-29T12:18:56.163Z,9.52
2024-01-29T12:21:27.901Z,9.60
2024-01-29T12:23:56.896Z,9.69
2024-01-29T12:26:29.722Z,9.77
2024-01-29T12:29:00.226Z,9.84
2024-01-29T12:31:29.158Z,9.94
2024-01-29T12:33:56.908Z,10.03
2024-01-29T12:36:25.026Z,10.11
2024-01-29T12:38:55.298Z,10.19
2024-01-29T12:41:23.613Z,10.27
2024-01-29T12:43:52.679Z,10.33
2024-01-29T12:46:20.659Z,10.39
2024-01-29T12:48:48.768Z,10.43
2024-01-29T12:51:16.850Z,10.49
2024-01-29T12:53:56.669Z,10.57
2024-01-29T12:56:30.968Z,10.66
2024-01-29T12:58:58.763Z,10.71
2024-01-29T13:01:27.219Z,10.78
2024-01-29T13:03:55.163Z,10.84
2024-01-29T13:06:23.843Z,10.90
2024-01-29T13:08:51.857Z,10.97
2024-01-29T13:11:19.675Z,11.03
2024-01-29T13:13:47.372Z,11.09
2024-01-29T13:16:15.007Z,11.15
2024-01-29T13:18:42.790Z,11.19
2024-01-29T13:21:10.966Z,11.23
2024-01-29T13:23:39.286Z,11.30
2024-01-29T13:26:08.471Z,11.36
2024-01-29T13:28:36.198Z,11.42
2024-01-29T13:31:04.118Z,11.48
2024-01-29T13:33:31.991Z,11.56
2024-01-29T13:36:00.669Z,11.62
2024-01-29T13:38:28.309Z,11.67
2024-01-29T13:40:55.921Z,11.74
2024-01-29T13:43:23.569Z,11.79
2024-01-29T13:45:51.385Z,11.88
2024-01-29T13:48:19.482Z,11.97
2024-01-29T13:50:47.462Z,12.06
2024-01-29T13:53:15.485Z,12.11
2024-01-29T13:55:43.217Z,12.19
2024-01-29T13:58:11.109Z,12.28
2024-01-29T14:00:38.863Z,12.35
2024-01-29T14:03:06.564Z,12.43
2024-01-29T14:05:34.885Z,12.48
2024-01-29T14:08:02.601Z,12.55
2024-01-29T14:10:35.395Z,12.62
2024-01-29T14:13:04.565Z,12.67
2024-01-29T14:15:32.279Z,12.74
2024-01-29T14:18:00.019Z,12.78
2024-01-29T14:20:27.999Z,12.83
2024-01-29T14:22:58.312Z,12.88
2024-01-29T14:25:26.360Z,12.89
2024-01-29T14:27:54.055Z,12.92
2024-01-29T14:30:21.692Z,12.95
2024-01-29T14:32:49.534Z,12.98
2024-01-29T14:35:17.386Z,13.00
2024-01-29T14:37:44.979Z,13.02
2024-01-29T14:40:12.626Z,13.05
2024-01-29T14:42:40.318Z,13.06
2024-01-29T14:45:08.165Z,13.06
2024-01-29T14:47:35.902Z,13.07
2024-01-29T14:50:05.089Z,13.06
2024-01-29T14:52:32.789Z,13.05
2024-01-29T14:55:00.552Z,13.06
2024-01-29T14:57:28.221Z,13.06
2024-01-29T14:59:55.826Z,13.07
2024-01-29T15:02:23.513Z,13.06
2024-01-29T15:04:51.290Z,13.08
2024-01-29T15:07:19.033Z,13.11
2024-01-29T15:09:46.743Z,13.11
2024-01-29T15:12:14.428Z,13.14
2024-01-29T15:14:42.029Z,13.13
2024-01-29T15:17:09.692Z,13.12
2024-01-29T15:19:38.049Z,13.11
2024-01-29T15:22:07.253Z,13.10
2024-01-29T15:24:36.391Z,13.08
2024-01-29T15:27:04.299Z,13.05
2024-01-29T15:29:31.962Z,13.00
2024-01-29T15:31:59.731Z,12.97
2024-01-29T15:34:27.411Z,12.95
2024-01-29T15:36:55.200Z,12.90
2024-01-29T15:39:23.527Z,12.85
2024-01-29T15:41:51.815Z,12.82
2024-01-29T15:44:19.415Z,12.76
2024-01-29T15:46:48.530Z,12.71
2024-01-29T15:49:16.304Z,12.65
2024-01-29T15:51:43.961Z,12.59
2024-01-29T15:54:11.537Z,12.51
2024-01-29T15:56:39.098Z,12.45
2024-01-29T15:59:06.769Z,12.38
2024-01-29T16:01:34.511Z,12.31
2024-01-29T16:04:02.672Z,12.23
2024-01-29T16:06:30.472Z,12.15
2024-01-29T16:08:58.337Z,12.08
2024-01-29T16:11:25.957Z,12.02
2024-01-29T16:13:53.528Z,11.94
2024-01-29T16:16:21.165Z,11.90
2024-01-29T16:18:49.145Z,11.82
2024-01-29T16:21:23.061Z,11.77
2024-01-29T16:23:51.995Z,11.72
2024-01-29T16:26:20.537Z,11.71
2024-01-29T16:28:48.139Z,11.67
2024-01-29T16:31:15.934Z,11.60
2024-01-29T16:33:44.185Z,11.54
2024-01-29T16:36:23.551Z,11.48
2024-01-29T16:38:54.900Z,11.42
2024-01-29T16:41:26.671Z,11.35
2024-01-29T16:43:55.345Z,11.28
2024-01-29T16:46:24.423Z,11.23
2024-01-29T16:48:52.240Z,11.15
2024-01-29T16:51:27.819Z,11.11
2024-01-29T16:53:55.550Z,11.06
2024-01-29T16:56:35.104Z,11.01
2024-01-29T16:59:08.972Z,10.98
2024-01-29T17:01:36.978Z,10.94
2024-01-29T17:04:04.895Z,10.88
2024-01-29T17:06:32.641Z,10.81
2024-01-29T17:09:00.747Z,10.78
2024-01-29T17:11:28.344Z,10.74
2024-01-29T17:13:56.034Z,10.70
2024-01-29T17:16:23.716Z,10.68
2024-01-29T17:18:51.455Z,10.63
2024-01-29T17:21:19.191Z,10.60
2024-01-29T17:23:46.821Z,10.57
2024-01-29T17:26:15.068Z,10.53
2024-01-29T17:28:46.183Z,10.49
2024-01-29T17:31:14.026Z,10.46
2024-01-29T17:33:41.835Z,10.42
2024-01-29T17:36:10.037Z,10.39
2024-01-29T17:38:40.888Z,10.38
2024-01-29T17:41:08.554Z,10.41
2024-01-29T17:43:36.148Z,10.47
2024-01-29T17:46:03.901Z,10.56
2024-01-29T17:48:31.688Z,10.62
2024-01-29T17:50:59.603Z,10.66
2024-01-29T17:53:29.801Z,10.71
2024-01-29T17:55:57.824Z,10.74
2024-01-29T17:58:25.437Z,10.74
2024-01-29T18:00:53.382Z,10.76
2024-01-29T18:03:23.726Z,10.76
2024-01-29T18:05:51.327Z,10.77
2024-01-29T18:08:20.705Z,10.80
2024-01-29T18:10:48.361Z,10.84
2024-01-29T18:13:15.993Z,10.88
2024-01-29T18:15:43.654Z,10.90
2024-01-29T18:18:11.405Z,10.93
2024-01-29T18:20:39.046Z,10.95
2024-01-29T18:23:09.452Z,10.95
2024-01-29T18:25:40.107Z,10.95
2024-01-29T18:28:08.036Z,10.96
2024-01-29T18:30:36.725Z,10.93
2024-01-29T18:33:04.843Z,10.92
2024-01-29T18:35:32.508Z,10.92
2024-01-29T18:38:00.073Z,10.91
2024-01-29T18:40:33.257Z,10.89
2024-01-29T18:43:01.177Z,10.87
2024-01-29T18:45:28.909Z,10.86
2024-01-29T18:47:56.732Z,10.84
2024-01-29T18:50:24.470Z,10.84
2024-01-29T18:52:52.138Z,10.82
2024-01-29T18:55:20.244Z,10.78
2024-01-29T18:57:47.970Z,10.74
2024-01-29T19:00:16.649Z,10.68
2024-01-29T19:02:44.757Z,10.64
2024-01-29T19:05:13.448Z,10.59
2024-01-29T19:07:43.260Z,10.51
2024-01-29T19:10:11.572Z,10.43
2024-01-29T19:12:39.338Z,10.31
2024-01-29T19:15:08.036Z,10.21
2024-01-29T19:17:35.820Z,10.06
2024-01-29T19:20:04.541Z,9.96
2024-01-29T19:22:32.152Z,9.86
2024-01-29T19:25:01.742Z,9.78
2024-01-29T19:27:29.915Z,9.69
2024-01-29T19:29:57.465Z,9.61
2024-01-29T19:32:25.989Z,9.53
2024-01-29T19:34:53.766Z,9.50
2024-01-29T19:37:26.854Z,9.44
2024-01-29T19:39:55.634Z,9.37
2024-01-29T19:42:23.254Z,9.29
2024-01-29T19:44:50.913Z,9.18
2024-01-29T19:47:18.694Z,9.10
2024-01-29T19:49:47.523Z,9.04
2024-01-29T19:52:15.524Z,9.01
2024-01-29T19:54:45.115Z,8.99
2024-01-29T19:57:12.776Z,8.97
2024-01-29T19:59:40.850Z,8.93
2024-01-29T20:02:08.658Z,8.85
2024-01-29T20:04:39.266Z,8.79
2024-01-29T20:07:07.628Z,8.72
2024-01-29T20:09:35.469Z,8.67
2024-01-29T20:12:03.050Z,8.63
2024-01-29T20:14:31.348Z,8.60
2024-01-29T20:16:58.940Z,8.57
2024-01-29T20:19:28.483Z,8.56
2024-01-29T20:21:56.161Z,8.51
2024-01-29T20:24:23.721Z,8.51
2024-01-29T20:26:51.372Z,8.47
2024-01-29T20:29:19.012Z,8.48
2024-01-29T20:31:46.562Z,8.48
2024-01-29T20:34:14.564Z,8.52
2024-01-29T20:36:42.828Z,8.51
2024-01-29T20:39:11.961Z,8.49
2024-01-29T20:41:46.982Z,8.47
2024-01-29T20:44:16.203Z,8.47
2024-01-29T20:46:46.462Z,8.45
2024-01-29T20:49:14.977Z,8.38
2024-01-29T20:51:42.703Z,8.34
2024-01-29T20:54:13.381Z,8.29
2024-01-29T20:56:40.927Z,8.27
2024-01-29T20:59:08.727Z,8.27
2024-01-29T21:01:36.681Z,8.21
2024-01-29T21:04:05.947Z,8.14
2024-01-29T21:06:33.766Z,8.09
2024-01-29T21:09:01.605Z,8.04
2024-01-29T21:11:29.291Z,7.97
2024-01-29T21:13:56.948Z,7.92
2024-01-29T21:16:26.330Z,7.92
2024-01-29T21:18:55.162Z,7.90
2024-01-29T21:21:24.730Z,7.84
2024-01-29T21:23:52.323Z,7.78
2024-01-29T21:26:27.507Z,7.73
2024-01-29T21:28:55.813Z,7.73
2024-01-29T21:31:23.957Z,7.69
2024-01-29T21:33:51.687Z,7.65
2024-01-29T21:36:20.503Z,7.62
2024-01-29T21:38:48.079Z,7.56
2024-01-29T21:41:15.658Z,7.54
2024-01-29T21:43:43.535Z,7.56
2024-01-29T21:46:12.362Z,7.55
2024-01-29T21:48:40.182Z,7.58
2024-01-29T21:51:07.958Z,7.53
2024-01-29T21:53:35.895Z,7.48
2024-01-29T21:56:04.038Z,7.47
2024-01-29T21:58:31.854Z,7.40
2024-01-29T22:00:59.581Z,7.37
2024-01-29T22:03:27.242Z,7.34
2024-01-29T22:05:54.830Z,7.34
2024-01-29T22:08:22.405Z,7.33
2024-01-29T22:10:50.010Z,7.31
2024-01-29T22:13:17.853Z,7.29
2024-01-29T22:15:45.501Z,7.31
2024-01-29T22:18:13.118Z,7.30
2024-01-29T22:20:40.696Z,7.28
2024-01-29T22:23:08.521Z,7.29
2024-01-29T22:25:36.179Z,7.34
2024-01-29T22:28:04.818Z,7.43
2024-01-29T22:30:33.268Z,7.42
2024-01-29T22:33:00.910Z,7.44
2024-01-29T22:35:28.588Z,7.43
2024-01-29T22:37:56.143Z,7.41
2024-01-29T22:40:23.803Z,7.42
2024-01-29T22:42:52.485Z,7.40
2024-01-29T22:45:20.143Z,7.34
2024-01-29T22:47:47.705Z,7.32
2024-01-29T22:50:15.345Z,7.32
2024-01-29T22:52:45.739Z,7.29
2024-01-29T22:55:13.549Z,7.26
2024-01-29T22:57:41.181Z,7.25
2024-01-29T23:00:17.322Z,7.22
2024-01-29T23:02:45.265Z,7.20
2024-01-29T23:05:13.796Z,7.19
2024-01-29T23:07:44.160Z,7.22
2024-01-29T23:10:11.878Z,7.28
2024-01-29T23:12:39.886Z,7.37
2024-01-29T23:15:09.345Z,7.46
2024-01-29T23:17:37.061Z,7.56
2024-01-29T23:20:05.460Z,7.69
2024-01-29T23:22:33.100Z,7.77
2024-01-29T23:25:01.218Z,7.84
2024-01-29T23:27:28.833Z,7.87
2024-01-29T23:29:56.914Z,7.88
2024-01-29T23:32:24.483Z,7.86
2024-01-29T23:34:52.229Z,7.85
2024-01-29T23:37:24.968Z,7.84
2024-01-29T23:39:54.782Z,7.88
2024-01-29T23:42:22.875Z,7.88
2024-01-29T23:44:50.483Z,7.91
2024-01-29T23:47:18.055Z,7.94
2024-01-29T23:49:45.696Z,7.97
2024-01-29T23:52:13.757Z,7.96
2024-01-29T23:54:41.385Z,7.97
2024-01-29T23:57:08.997Z,7.97
2024-01-29T23:59:36.574Z,7.99
